Little Tucson, Arizona
Current Conditions -  °F | °C
As of 10:45 AM on Saturday 25 Oct 2014 (Local Time) from KRYN Reporting Station
Clear Clear  
Wind Chill: 88°   Ceiling: Unl
Heat Index: 88°   Visibility: 10mi
Dew Point: 50°   Wind: 12mph
Humidity: 27%   Direction: 100°E
Pressure: 30.11"   Gusts: NA
Location:  32.0925°N, 112.129°W
Report Text: KRYN 251745Z 10010KT 10SM CLR 31/10 A3011
Loading
Personal Weather Stations






























Interactive Weather Map
Tropical Storm Tracking
New forecast layout! Learn more

10-Day Weather Forecast

Advertisements
Track Severe Weather on mobile